sensor_id;sensor_type;location;lat;lon;timestamp;pressure;altitude;pressure_sealevel;temperature;humidity
11198;BME280;5655;48.744;9.162;2022-07-01T00:00:09;96126.13;;;17.75;100.00
11198;BME280;5655;48.744;9.162;2022-07-01T00:02:34;96138.41;;;17.80;100.00
11198;BME280;5655;48.744;9.162;2022-07-01T00:05:00;96146.25;;;17.74;100.00
11198;BME280;5655;48.744;9.162;2022-07-01T00:07:25;96147.16;;;17.67;100.00
11198;BME280;5655;48.744;9.162;2022-07-01T00:09:51;96147.03;;;17.51;100.00
11198;BME280;5655;48.744;9.162;2022-07-01T00:12:16;96155.03;;;17.58;100.00
11198;BME280;5655;48.744;9.162;2022-07-01T00:14:41;96145.63;;;17.66;100.00
11198;BME280;5655;48.744;9.162;2022-07-01T00:17:07;96150.31;;;17.62;100.00
11198;BME280;5655;48.744;9.162;2022-07-01T00:19:33;96160.78;;;17.37;100.00
11198;BME280;5655;48.744;9.162;2022-07-01T00:21:58;96158.16;;;17.30;100.00
11198;BME280;5655;48.744;9.162;2022-07-01T00:24:24;96164.94;;;17.18;100.00
11198;BME280;5655;48.744;9.162;2022-07-01T00:26:49;96161.97;;;17.09;100.00
11198;BME280;5655;48.744;9.162;2022-07-01T00:29:15;96164.59;;;16.90;100.00
11198;BME280;5655;48.744;9.162;2022-07-01T00:31:40;96170.00;;;16.90;100.00
11198;BME280;5655;48.744;9.162;2022-07-01T00:34:05;96175.41;;;16.90;100.00
11198;BME280;5655;48.744;9.162;2022-07-01T00:36:31;96165.41;;;16.87;100.00
11198;BME280;5655;48.744;9.162;2022-07-01T00:38:57;96154.28;;;17.08;100.00
11198;BME280;5655;48.744;9.162;2022-07-01T00:41:23;96146.63;;;17.03;100.00
11198;BME280;5655;48.744;9.162;2022-07-01T00:43:48;96137.19;;;16.88;100.00
11198;BME280;5655;48.744;9.162;2022-07-01T00:46:13;96134.41;;;16.95;100.00
11198;BME280;5655;48.744;9.162;2022-07-01T00:48:39;96128.53;;;17.00;100.00
11198;BME280;5655;48.744;9.162;2022-07-01T00:51:04;96115.75;;;17.00;100.00
11198;BME280;5655;48.744;9.162;2022-07-01T00:53:30;96127.50;;;16.90;100.00
11198;BME280;5655;48.744;9.162;2022-07-01T00:55:56;96115.28;;;16.82;100.00
11198;BME280;5655;48.744;9.162;2022-07-01T00:58:22;96130.72;;;16.82;100.00
11198;BME280;5655;48.744;9.162;2022-07-01T01:00:47;96118.75;;;16.83;100.00
11198;BME280;5655;48.744;9.162;2022-07-01T01:03:13;96125.84;;;16.96;100.00
11198;BME280;5655;48.744;9.162;2022-07-01T01:05:40;96119.47;;;17.10;100.00
11198;BME280;5655;48.744;9.162;2022-07-01T01:08:08;96125.25;;;17.12;100.00
11198;BME280;5655;48.744;9.162;2022-07-01T01:10:35;96116.31;;;17.15;100.00
11198;BME280;5655;48.744;9.162;2022-07-01T01:13:02;96109.34;;;17.14;100.00
11198;BME280;5655;48.744;9.162;2022-07-01T01:15:29;96108.50;;;17.20;100.00
11198;BME280;5655;48.744;9.162;2022-07-01T01:17:55;96110.53;;;17.13;100.00
11198;BME280;5655;48.744;9.162;2022-07-01T01:20:20;96105.50;;;17.15;100.00
11198;BME280;5655;48.744;9.162;2022-07-01T01:22:46;96112.53;;;17.09;100.00
11198;BME280;5655;48.744;9.162;2022-07-01T01:25:14;96100.44;;;17.17;100.00
11198;BME280;5655;48.744;9.162;2022-07-01T01:27:39;96104.59;;;16.98;100.00
11198;BME280;5655;48.744;9.162;2022-07-01T01:30:06;96113.75;;;17.04;100.00
11198;BME280;5655;48.744;9.162;2022-07-01T01:32:32;96098.06;;;16.96;100.00
11198;BME280;5655;48.744;9.162;2022-07-01T01:34:57;96095.72;;;16.98;100.00
11198;BME280;5655;48.744;9.162;2022-07-01T01:37:22;96091.13;;;16.95;100.00
11198;BME280;5655;48.744;9.162;2022-07-01T01:39:48;96089.94;;;16.96;100.00
11198;BME280;5655;48.744;9.162;2022-07-01T01:42:13;96086.25;;;16.86;100.00
11198;BME280;5655;48.744;9.162;2022-07-01T01:44:39;96077.94;;;16.73;100.00
11198;BME280;5655;48.744;9.162;2022-07-01T01:47:04;96068.25;;;16.76;100.00
11198;BME280;5655;48.744;9.162;2022-07-01T01:49:30;96069.03;;;16.76;100.00
11198;BME280;5655;48.744;9.162;2022-07-01T01:51:56;96077.47;;;16.78;100.00
11198;BME280;5655;48.744;9.162;2022-07-01T01:54:24;96055.97;;;16.71;100.00
11198;BME280;5655;48.744;9.162;2022-07-01T01:56:50;96047.91;;;16.68;100.00
11198;BME280;5655;48.744;9.162;2022-07-01T01:59:15;96046.06;;;16.61;100.00
11198;BME280;5655;48.744;9.162;2022-07-01T02:01:40;96032.38;;;16.45;100.00
11198;BME280;5655;48.744;9.162;2022-07-01T02:04:06;96023.75;;;16.57;100.00
11198;BME280;5655;48.744;9.162;2022-07-01T02:06:31;96021.50;;;16.52;100.00
11198;BME280;5655;48.744;9.162;2022-07-01T02:08:57;96024.09;;;16.59;100.00
11198;BME280;5655;48.744;9.162;2022-07-01T02:11:22;96006.72;;;16.60;100.00
11198;BME280;5655;48.744;9.162;2022-07-01T02:13:47;96014.84;;;16.57;100.00
11198;BME280;5655;48.744;9.162;2022-07-01T02:16:13;96012.13;;;16.60;100.00
11198;BME280;5655;48.744;9.162;2022-07-01T02:18:38;96011.63;;;16.69;100.00
11198;BME280;5655;48.744;9.162;2022-07-01T02:21:04;96007.06;;;16.35;100.00
11198;BME280;5655;48.744;9.162;2022-07-01T02:23:29;96001.63;;;16.39;100.00
11198;BME280;5655;48.744;9.162;2022-07-01T02:25:55;96007.75;;;16.43;100.00
11198;BME280;5655;48.744;9.162;2022-07-01T02:28:21;96015.47;;;16.41;100.00
11198;BME280;5655;48.744;9.162;2022-07-01T02:30:46;96008.94;;;16.12;100.00
11198;BME280;5655;48.744;9.162;2022-07-01T02:33:12;96015.00;;;16.19;100.00
11198;BME280;5655;48.744;9.162;2022-07-01T02:35:40;96033.78;;;16.30;100.00
11198;BME280;5655;48.744;9.162;2022-07-01T02:38:06;96028.94;;;16.18;100.00
11198;BME280;5655;48.744;9.162;2022-07-01T02:40:33;96036.06;;;16.05;100.00
11198;BME280;5655;48.744;9.162;2022-07-01T02:42:59;96046.09;;;16.04;100.00
11198;BME280;5655;48.744;9.162;2022-07-01T02:45:24;96040.00;;;15.97;100.00
11198;BME280;5655;48.744;9.162;2022-07-01T02:47:50;96039.75;;;15.87;100.00
11198;BME280;5655;48.744;9.162;2022-07-01T02:50:18;96031.38;;;16.09;100.00
11198;BME280;5655;48.744;9.162;2022-07-01T02:52:44;96035.06;;;15.92;100.00
11198;BME280;5655;48.744;9.162;2022-07-01T02:55:12;96043.00;;;16.02;100.00
11198;BME280;5655;48.744;9.162;2022-07-01T02:57:39;96047.25;;;16.03;100.00
11198;BME280;5655;48.744;9.162;2022-07-01T03:00:07;96032.88;;;16.10;100.00
11198;BME280;5655;48.744;9.162;2022-07-01T03:02:32;96043.91;;;16.22;100.00
11198;BME280;5655;48.744;9.162;2022-07-01T03:04:58;96037.75;;;15.92;100.00
11198;BME280;5655;48.744;9.162;2022-07-01T03:07:24;96056.25;;;15.93;100.00
11198;BME280;5655;48.744;9.162;2022-07-01T03:09:49;96069.97;;;15.72;100.00
11198;BME280;5655;48.744;9.162;2022-07-01T03:12:14;96065.63;;;15.81;100.00
11198;BME280;5655;48.744;9.162;2022-07-01T03:15:04;96061.78;;;16.13;100.00
11198;BME280;5655;48.744;9.162;2022-07-01T03:17:32;96062.84;;;15.88;100.00
11198;BME280;5655;48.744;9.162;2022-07-01T03:19:58;96056.38;;;16.13;100.00
11198;BME280;5655;48.744;9.162;2022-07-01T03:22:28;96063.66;;;16.16;100.00
11198;BME280;5655;48.744;9.162;2022-07-01T03:24:54;96058.78;;;15.73;100.00
11198;BME280;5655;48.744;9.162;2022-07-01T03:27:21;96067.00;;;15.97;100.00
11198;BME280;5655;48.744;9.162;2022-07-01T03:29:47;96085.44;;;16.02;100.00
11198;BME280;5655;48.744;9.162;2022-07-01T03:32:13;96086.25;;;15.99;100.00
11198;BME280;5655;48.744;9.162;2022-07-01T03:34:39;96092.59;;;16.15;100.00
11198;BME280;5655;48.744;9.162;2022-07-01T03:37:06;96092.31;;;16.06;100.00
11198;BME280;5655;48.744;9.162;2022-07-01T03:39:32;96108.28;;;15.94;100.00
11198;BME280;5655;48.744;9.162;2022-07-01T03:41:58;96104.88;;;15.89;100.00
11198;BME280;5655;48.744;9.162;2022-07-01T03:44:23;96106.59;;;15.73;100.00
11198;BME280;5655;48.744;9.162;2022-07-01T03:46:49;96101.72;;;15.95;100.00
11198;BME280;5655;48.744;9.162;2022-07-01T03:49:14;96108.28;;;15.94;100.00
11198;BME280;5655;48.744;9.162;2022-07-01T03:51:39;96117.19;;;15.91;100.00
11198;BME280;5655;48.744;9.162;2022-07-01T03:54:05;96109.94;;;16.18;100.00
11198;BME280;5655;48.744;9.162;2022-07-01T03:56:49;96102.69;;;16.11;100.00
11198;BME280;5655;48.744;9.162;2022-07-01T03:59:14;96109.25;;;16.10;100.00
11198;BME280;5655;48.744;9.162;2022-07-01T04:01:39;96127.22;;;15.90;100.00
11198;BME280;5655;48.744;9.162;2022-07-01T04:04:05;96146.16;;;15.86;100.00
11198;BME280;5655;48.744;9.162;2022-07-01T04:06:30;96152.44;;;15.76;100.00
11198;BME280;5655;48.744;9.162;2022-07-01T04:08:56;96154.41;;;15.72;100.00
11198;BME280;5655;48.744;9.162;2022-07-01T04:11:22;96155.16;;;15.73;100.00
11198;BME280;5655;48.744;9.162;2022-07-01T04:13:48;96175.19;;;15.75;100.00
11198;BME280;5655;48.744;9.162;2022-07-01T04:16:19;96182.84;;;15.80;100.00
11198;BME280;5655;48.744;9.162;2022-07-01T04:18:46;96201.59;;;15.57;100.00
11198;BME280;5655;48.744;9.162;2022-07-01T04:21:11;96190.63;;;15.71;100.00
11198;BME280;5655;48.744;9.162;2022-07-01T04:23:56;96199.81;;;15.81;100.00
11198;BME280;5655;48.744;9.162;2022-07-01T04:26:24;96209.22;;;15.66;100.00
11198;BME280;5655;48.744;9.162;2022-07-01T04:28:51;96219.34;;;15.51;100.00
11198;BME280;5655;48.744;9.162;2022-07-01T04:31:17;96207.75;;;15.54;100.00
11198;BME280;5655;48.744;9.162;2022-07-01T04:33:42;96209.25;;;15.59;100.00
11198;BME280;5655;48.744;9.162;2022-07-01T04:36:08;96196.09;;;15.64;100.00
11198;BME280;5655;48.744;9.162;2022-07-01T04:38:33;96195.06;;;15.92;100.00
11198;BME280;5655;48.744;9.162;2022-07-01T04:40:59;96188.84;;;15.99;100.00
11198;BME280;5655;48.744;9.162;2022-07-01T04:43:43;96190.09;;;15.91;100.00
11198;BME280;5655;48.744;9.162;2022-07-01T04:46:08;96178.81;;;15.99;100.00
11198;BME280;5655;48.744;9.162;2022-07-01T04:48:33;96185.16;;;15.82;100.00
11198;BME280;5655;48.744;9.162;2022-07-01T04:50:59;96189.56;;;16.03;100.00
11198;BME280;5655;48.744;9.162;2022-07-01T04:53:25;96191.78;;;16.11;100.00
11198;BME280;5655;48.744;9.162;2022-07-01T04:55:51;96192.47;;;16.19;100.00
11198;BME280;5655;48.744;9.162;2022-07-01T04:58:16;96196.28;;;16.25;100.00
11198;BME280;5655;48.744;9.162;2022-07-01T05:00:42;96203.78;;;16.07;100.00
11198;BME280;5655;48.744;9.162;2022-07-01T05:03:08;96196.56;;;16.00;100.00
11198;BME280;5655;48.744;9.162;2022-07-01T05:05:33;96194.19;;;16.02;100.00
11198;BME280;5655;48.744;9.162;2022-07-01T05:07:58;96201.66;;;15.91;100.00
11198;BME280;5655;48.744;9.162;2022-07-01T05:10:24;96212.06;;;15.89;100.00
11198;BME280;5655;48.744;9.162;2022-07-01T05:12:49;96214.72;;;15.93;100.00
11198;BME280;5655;48.744;9.162;2022-07-01T05:15:14;96222.72;;;16.03;100.00
11198;BME280;5655;48.744;9.162;2022-07-01T05:17:40;96213.50;;;16.01;100.00
11198;BME280;5655;48.744;9.162;2022-07-01T05:20:24;96213.44;;;16.08;100.00
11198;BME280;5655;48.744;9.162;2022-07-01T05:23:08;96204.91;;;16.13;100.00
11198;BME280;5655;48.744;9.162;2022-07-01T05:25:33;96200.19;;;16.20;100.00
11198;BME280;5655;48.744;9.162;2022-07-01T05:27:59;96203.66;;;16.21;100.00
11198;BME280;5655;48.744;9.162;2022-07-01T05:30:24;96196.31;;;16.21;100.00
11198;BME280;5655;48.744;9.162;2022-07-01T05:32:49;96190.88;;;16.25;100.00
11198;BME280;5655;48.744;9.162;2022-07-01T05:35:15;96204.28;;;16.32;100.00
11198;BME280;5655;48.744;9.162;2022-07-01T05:37:41;96201.16;;;16.37;100.00
11198;BME280;5655;48.744;9.162;2022-07-01T05:40:07;96196.03;;;16.46;100.00
11198;BME280;5655;48.744;9.162;2022-07-01T05:42:33;96197.19;;;16.45;100.00
11198;BME280;5655;48.744;9.162;2022-07-01T05:44:58;96203.44;;;16.39;100.00
11198;BME280;5655;48.744;9.162;2022-07-01T05:47:24;96200.13;;;16.24;100.00
11198;BME280;5655;48.744;9.162;2022-07-01T05:49:49;96207.72;;;16.36;100.00
11198;BME280;5655;48.744;9.162;2022-07-01T05:52:14;96204.94;;;16.43;100.00
11198;BME280;5655;48.744;9.162;2022-07-01T05:54:40;96205.28;;;16.45;100.00
11198;BME280;5655;48.744;9.162;2022-07-01T05:57:05;96199.66;;;16.32;100.00
11198;BME280;5655;48.744;9.162;2022-07-01T05:59:31;96193.72;;;16.45;100.00
11198;BME280;5655;48.744;9.162;2022-07-01T06:01:56;96189.81;;;16.49;100.00
11198;BME280;5655;48.744;9.162;2022-07-01T06:04:21;96188.56;;;16.57;100.00
11198;BME280;5655;48.744;9.162;2022-07-01T06:06:47;96189.41;;;16.51;100.00
11198;BME280;5655;48.744;9.162;2022-07-01T06:09:12;96185.88;;;16.54;100.00
11198;BME280;5655;48.744;9.162;2022-07-01T06:11:38;96196.69;;;16.57;100.00
11198;BME280;5655;48.744;9.162;2022-07-01T06:14:03;96195.53;;;16.55;100.00
11198;BME280;5655;48.744;9.162;2022-07-01T06:16:28;96204.75;;;16.61;100.00
11198;BME280;5655;48.744;9.162;2022-07-01T06:18:54;96207.09;;;16.59;100.00
11198;BME280;5655;48.744;9.162;2022-07-01T06:21:19;96212.88;;;16.61;100.00
11198;BME280;5655;48.744;9.162;2022-07-01T06:23:44;96232.13;;;16.63;100.00
11198;BME280;5655;48.744;9.162;2022-07-01T06:26:12;96234.53;;;16.54;100.00
11198;BME280;5655;48.744;9.162;2022-07-01T06:28:37;96217.13;;;16.58;100.00
11198;BME280;5655;48.744;9.162;2022-07-01T06:31:03;96216.34;;;16.58;100.00
11198;BME280;5655;48.744;9.162;2022-07-01T06:33:28;96222.09;;;16.63;100.00
11198;BME280;5655;48.744;9.162;2022-07-01T06:35:56;96223.63;;;16.64;100.00
11198;BME280;5655;48.744;9.162;2022-07-01T06:38:21;96223.19;;;16.69;100.00
11198;BME280;5655;48.744;9.162;2022-07-01T06:40:47;96229.31;;;16.73;100.00
11198;BME280;5655;48.744;9.162;2022-07-01T06:43:32;96234.19;;;16.52;100.00
11198;BME280;5655;48.744;9.162;2022-07-01T06:45:57;96244.03;;;16.35;100.00
11198;BME280;5655;48.744;9.162;2022-07-01T06:48:23;96241.03;;;16.26;100.00
11198;BME280;5655;48.744;9.162;2022-07-01T06:50:48;96240.06;;;16.43;100.00
11198;BME280;5655;48.744;9.162;2022-07-01T06:53:13;96246.25;;;16.40;100.00
11198;BME280;5655;48.744;9.162;2022-07-01T06:55:38;96248.97;;;16.40;100.00
11198;BME280;5655;48.744;9.162;2022-07-01T06:58:04;96251.97;;;16.12;100.00
11198;BME280;5655;48.744;9.162;2022-07-01T07:00:30;96258.19;;;16.05;100.00
11198;BME280;5655;48.744;9.162;2022-07-01T07:02:56;96252.19;;;16.28;100.00
11198;BME280;5655;48.744;9.162;2022-07-01T07:05:21;96257.28;;;16.19;100.00
11198;BME280;5655;48.744;9.162;2022-07-01T07:07:46;96267.00;;;16.50;100.00
11198;BME280;5655;48.744;9.162;2022-07-01T07:10:12;96260.44;;;16.51;100.00
11198;BME280;5655;48.744;9.162;2022-07-01T07:12:37;96278.94;;;16.15;100.00
11198;BME280;5655;48.744;9.162;2022-07-01T07:15:02;96274.22;;;16.26;100.00
11198;BME280;5655;48.744;9.162;2022-07-01T07:17:28;96274.22;;;16.26;100.00
11198;BME280;5655;48.744;9.162;2022-07-01T07:19:53;96264.22;;;16.20;100.00
11198;BME280;5655;48.744;9.162;2022-07-01T07:22:20;96267.13;;;16.36;100.00
11198;BME280;5655;48.744;9.162;2022-07-01T07:24:45;96272.63;;;16.29;100.00
11198;BME280;5655;48.744;9.162;2022-07-01T07:27:11;96270.28;;;16.31;100.00
11198;BME280;5655;48.744;9.162;2022-07-01T07:29:36;96279.88;;;16.39;100.00
11198;BME280;5655;48.744;9.162;2022-07-01T07:32:02;96281.59;;;16.19;100.00
11198;BME280;5655;48.744;9.162;2022-07-01T07:34:27;96275.97;;;16.40;100.00
11198;BME280;5655;48.744;9.162;2022-07-01T07:36:53;96272.91;;;16.38;100.00
11198;BME280;5655;48.744;9.162;2022-07-01T07:39:18;96264.22;;;16.57;100.00
11198;BME280;5655;48.744;9.162;2022-07-01T07:41:43;96259.22;;;16.56;100.00
11198;BME280;5655;48.744;9.162;2022-07-01T07:44:09;96262.31;;;16.54;100.00
11198;BME280;5655;48.744;9.162;2022-07-01T07:46:34;96256.97;;;16.51;100.00
11198;BME280;5655;48.744;9.162;2022-07-01T07:48:59;96256.56;;;16.52;100.00
11198;BME280;5655;48.744;9.162;2022-07-01T07:51:25;96258.44;;;16.59;100.00
11198;BME280;5655;48.744;9.162;2022-07-01T07:53:51;96256.06;;;16.64;100.00
11198;BME280;5655;48.744;9.162;2022-07-01T07:56:16;96253.16;;;16.78;100.00
11198;BME280;5655;48.744;9.162;2022-07-01T07:58:42;96255.78;;;16.86;100.00
11198;BME280;5655;48.744;9.162;2022-07-01T08:01:08;96239.41;;;16.96;100.00
11198;BME280;5655;48.744;9.162;2022-07-01T08:03:34;96245.41;;;17.11;100.00
11198;BME280;5655;48.744;9.162;2022-07-01T08:05:59;96252.38;;;17.12;100.00
11198;BME280;5655;48.744;9.162;2022-07-01T08:08:25;96260.72;;;16.94;100.00
11198;BME280;5655;48.744;9.162;2022-07-01T08:10:53;96258.19;;;16.80;100.00
11198;BME280;5655;48.744;9.162;2022-07-01T08:13:19;96266.34;;;16.76;100.00
11198;BME280;5655;48.744;9.162;2022-07-01T08:15:44;96258.41;;;16.93;100.00
11198;BME280;5655;48.744;9.162;2022-07-01T08:18:09;96266.88;;;16.95;100.00
11198;BME280;5655;48.744;9.162;2022-07-01T08:20:35;96263.84;;;16.55;100.00
11198;BME280;5655;48.744;9.162;2022-07-01T08:23:00;96274.53;;;16.69;100.00
11198;BME280;5655;48.744;9.162;2022-07-01T08:25:26;96267.69;;;16.92;100.00
11198;BME280;5655;48.744;9.162;2022-07-01T08:27:51;96275.03;;;16.91;100.00
11198;BME280;5655;48.744;9.162;2022-07-01T08:30:16;96276.06;;;17.01;100.00
11198;BME280;5655;48.744;9.162;2022-07-01T08:32:42;96271.63;;;17.14;100.00
11198;BME280;5655;48.744;9.162;2022-07-01T08:35:07;96281.75;;;17.10;100.00
11198;BME280;5655;48.744;9.162;2022-07-01T08:37:33;96288.13;;;16.93;100.00
11198;BME280;5655;48.744;9.162;2022-07-01T08:39:59;96285.72;;;17.02;100.00
11198;BME280;5655;48.744;9.162;2022-07-01T08:42:24;96278.03;;;16.97;100.00
11198;BME280;5655;48.744;9.162;2022-07-01T08:44:50;96286.59;;;16.92;100.00
11198;BME280;5655;48.744;9.162;2022-07-01T08:47:15;96296.41;;;16.82;100.00
11198;BME280;5655;48.744;9.162;2022-07-01T08:49:41;96292.44;;;16.90;100.00
11198;BME280;5655;48.744;9.162;2022-07-01T08:52:06;96297.34;;;16.99;100.00
11198;BME280;5655;48.744;9.162;2022-07-01T08:54:35;96302.03;;;16.95;100.00
11198;BME280;5655;48.744;9.162;2022-07-01T08:57:03;96310.16;;;17.25;100.00
11198;BME280;5655;48.744;9.162;2022-07-01T08:59:28;96303.16;;;16.97;100.00
11198;BME280;5655;48.744;9.162;2022-07-01T09:01:55;96297.69;;;17.01;100.00
11198;BME280;5655;48.744;9.162;2022-07-01T09:04:22;96301.13;;;17.05;100.00
11198;BME280;5655;48.744;9.162;2022-07-01T09:06:48;96293.66;;;17.16;100.00
11198;BME280;5655;48.744;9.162;2022-07-01T09:09:21;96294.25;;;17.27;100.00
11198;BME280;5655;48.744;9.162;2022-07-01T09:11:51;96303.66;;;17.19;100.00
11198;BME280;5655;48.744;9.162;2022-07-01T09:14:27;96300.66;;;17.10;100.00
11198;BME280;5655;48.744;9.162;2022-07-01T09:16:55;96288.69;;;17.11;100.00
11198;BME280;5655;48.744;9.162;2022-07-01T09:19:23;96288.25;;;17.16;100.00
11198;BME280;5655;48.744;9.162;2022-07-01T09:21:58;96267.66;;;17.22;100.00
11198;BME280;5655;48.744;9.162;2022-07-01T09:29:35;96310.59;;;16.90;100.00
11198;BME280;5655;48.744;9.162;2022-07-01T09:32:08;96319.97;;;16.82;100.00
11198;BME280;5655;48.744;9.162;2022-07-01T09:37:06;96316.53;;;16.74;100.00
11198;BME280;5655;48.744;9.162;2022-07-01T09:42:13;96302.88;;;16.88;100.00
11198;BME280;5655;48.744;9.162;2022-07-01T09:47:26;96300.75;;;16.72;100.00
11198;BME280;5655;48.744;9.162;2022-07-01T09:49:53;96296.94;;;16.66;100.00
11198;BME280;5655;48.744;9.162;2022-07-01T09:52:19;96296.13;;;16.73;100.00
11198;BME280;5655;48.744;9.162;2022-07-01T09:54:46;96285.88;;;16.88;100.00
11198;BME280;5655;48.744;9.162;2022-07-01T09:57:16;96292.34;;;16.97;100.00
11198;BME280;5655;48.744;9.162;2022-07-01T09:59:42;96293.53;;;16.93;100.00
11198;BME280;5655;48.744;9.162;2022-07-01T10:02:08;96309.16;;;16.82;100.00
11198;BME280;5655;48.744;9.162;2022-07-01T10:04:36;96310.69;;;16.83;100.00
11198;BME280;5655;48.744;9.162;2022-07-01T10:07:17;96308.06;;;17.06;100.00
11198;BME280;5655;48.744;9.162;2022-07-01T10:12:54;96316.16;;;17.36;100.00
11198;BME280;5655;48.744;9.162;2022-07-01T10:15:20;96313.22;;;17.54;100.00
11198;BME280;5655;48.744;9.162;2022-07-01T10:17:49;96317.75;;;17.34;100.00
11198;BME280;5655;48.744;9.162;2022-07-01T10:20:26;96319.75;;;17.60;100.00
11198;BME280;5655;48.744;9.162;2022-07-01T10:23:01;96308.63;;;17.78;100.00
11198;BME280;5655;48.744;9.162;2022-07-01T10:28:25;96315.34;;;17.93;100.00
11198;BME280;5655;48.744;9.162;2022-07-01T10:31:04;96318.56;;;18.11;100.00
11198;BME280;5655;48.744;9.162;2022-07-01T10:36:28;96321.47;;;18.43;100.00
11198;BME280;5655;48.744;9.162;2022-07-01T10:41:33;96336.13;;;17.99;100.00
11198;BME280;5655;48.744;9.162;2022-07-01T10:44:01;96324.56;;;17.99;100.00
11198;BME280;5655;48.744;9.162;2022-07-01T10:46:41;96329.84;;;18.06;100.00
11198;BME280;5655;48.744;9.162;2022-07-01T10:49:16;96340.81;;;18.22;100.00
11198;BME280;5655;48.744;9.162;2022-07-01T10:54:12;96327.00;;;18.59;100.00
11198;BME280;5655;48.744;9.162;2022-07-01T10:56:38;96336.34;;;18.78;100.00
11198;BME280;5655;48.744;9.162;2022-07-01T10:59:04;96354.09;;;18.83;100.00
11198;BME280;5655;48.744;9.162;2022-07-01T11:01:30;96354.78;;;18.87;100.00
11198;BME280;5655;48.744;9.162;2022-07-01T11:03:55;96364.28;;;18.52;100.00
11198;BME280;5655;48.744;9.162;2022-07-01T11:06:21;96357.00;;;18.72;100.00
11198;BME280;5655;48.744;9.162;2022-07-01T11:08:49;96347.41;;;18.68;100.00
11198;BME280;5655;48.744;9.162;2022-07-01T11:11:15;96351.41;;;18.59;100.00
11198;BME280;5655;48.744;9.162;2022-07-01T11:13:40;96352.13;;;19.03;100.00
11198;BME280;5655;48.744;9.162;2022-07-01T11:16:06;96362.16;;;19.06;100.00
11198;BME280;5655;48.744;9.162;2022-07-01T11:18:31;96359.59;;;19.19;100.00
11198;BME280;5655;48.744;9.162;2022-07-01T11:21:07;96340.03;;;19.63;100.00
11198;BME280;5655;48.744;9.162;2022-07-01T11:23:33;96349.72;;;19.80;100.00
11198;BME280;5655;48.744;9.162;2022-07-01T11:25:58;96346.91;;;19.68;100.00
11198;BME280;5655;48.744;9.162;2022-07-01T11:28:23;96352.22;;;19.75;100.00
11198;BME280;5655;48.744;9.162;2022-07-01T11:30:58;96370.78;;;19.76;100.00
11198;BME280;5655;48.744;9.162;2022-07-01T11:33:23;96363.06;;;19.75;100.00
11198;BME280;5655;48.744;9.162;2022-07-01T11:35:48;96379.00;;;19.57;100.00
11198;BME280;5655;48.744;9.162;2022-07-01T11:38:32;96382.06;;;19.59;100.00
11198;BME280;5655;48.744;9.162;2022-07-01T11:41:23;96377.56;;;19.68;100.00
11198;BME280;5655;48.744;9.162;2022-07-01T11:43:50;96382.22;;;19.68;100.00
11198;BME280;5655;48.744;9.162;2022-07-01T11:46:16;96384.53;;;19.69;100.00
11198;BME280;5655;48.744;9.162;2022-07-01T11:48:50;96376.91;;;19.80;100.00
11198;BME280;5655;48.744;9.162;2022-07-01T11:51:20;96378.69;;;19.71;100.00
11198;BME280;5655;48.744;9.162;2022-07-01T11:53:52;96389.22;;;19.85;100.00
11198;BME280;5655;48.744;9.162;2022-07-01T11:56:35;96433.72;;;19.91;100.00
11198;BME280;5655;48.744;9.162;2022-07-01T11:59:03;96437.59;;;19.74;100.00
11198;BME280;5655;48.744;9.162;2022-07-01T12:01:34;96444.22;;;19.89;100.00
11198;BME280;5655;48.744;9.162;2022-07-01T12:04:02;96449.03;;;20.01;100.00
11198;BME280;5655;48.744;9.162;2022-07-01T12:06:29;96456.34;;;20.20;100.00
11198;BME280;5655;48.744;9.162;2022-07-01T12:08:56;96450.22;;;20.36;100.00
11198;BME280;5655;48.744;9.162;2022-07-01T12:11:22;96447.47;;;20.84;100.00
11198;BME280;5655;48.744;9.162;2022-07-01T12:13:49;96444.03;;;21.13;100.00
11198;BME280;5655;48.744;9.162;2022-07-01T12:16:15;96491.28;;;21.35;100.00
11198;BME280;5655;48.744;9.162;2022-07-01T12:19:13;96473.22;;;21.12;100.00
11198;BME280;5655;48.744;9.162;2022-07-01T12:21:56;96474.84;;;21.39;100.00
11198;BME280;5655;48.744;9.162;2022-07-01T12:24:25;96483.56;;;21.75;100.00
11198;BME280;5655;48.744;9.162;2022-07-01T12:29:29;96484.09;;;21.70;100.00
11198;BME280;5655;48.744;9.162;2022-07-01T12:32:05;96501.31;;;21.38;100.00
11198;BME280;5655;48.744;9.162;2022-07-01T12:34:44;96468.94;;;21.11;100.00
11198;BME280;5655;48.744;9.162;2022-07-01T12:37:13;96480.53;;;20.99;100.00
11198;BME280;5655;48.744;9.162;2022-07-01T12:39:49;96478.25;;;21.14;100.00
11198;BME280;5655;48.744;9.162;2022-07-01T12:42:42;96470.88;;;21.11;100.00
11198;BME280;5655;48.744;9.162;2022-07-01T12:45:10;96478.13;;;21.01;100.00
11198;BME280;5655;48.744;9.162;2022-07-01T12:47:39;96465.53;;;21.07;100.00
11198;BME280;5655;48.744;9.162;2022-07-01T12:52:33;96467.19;;;20.72;100.00
11198;BME280;5655;48.744;9.162;2022-07-01T12:54:59;96466.63;;;20.65;100.00
11198;BME280;5655;48.744;9.162;2022-07-01T12:57:29;96462.88;;;20.59;100.00
11198;BME280;5655;48.744;9.162;2022-07-01T12:59:56;96473.06;;;20.55;100.00
11198;BME280;5655;48.744;9.162;2022-07-01T13:02:21;96470.25;;;20.58;100.00
11198;BME280;5655;48.744;9.162;2022-07-01T13:04:46;96473.22;;;20.80;100.00
11198;BME280;5655;48.744;9.162;2022-07-01T13:07:11;96492.81;;;20.75;100.00
11198;BME280;5655;48.744;9.162;2022-07-01T13:09:37;96492.81;;;20.75;100.00
11198;BME280;5655;48.744;9.162;2022-07-01T13:12:03;96490.06;;;20.59;100.00
11198;BME280;5655;48.744;9.162;2022-07-01T13:14:28;96485.13;;;20.54;100.00
11198;BME280;5655;48.744;9.162;2022-07-01T13:16:53;96493.53;;;20.75;100.00
11198;BME280;5655;48.744;9.162;2022-07-01T13:19:19;96496.09;;;20.82;100.00
11198;BME280;5655;48.744;9.162;2022-07-01T13:21:44;96494.31;;;20.76;100.00
11198;BME280;5655;48.744;9.162;2022-07-01T13:24:09;96492.09;;;20.38;100.00
11198;BME280;5655;48.744;9.162;2022-07-01T13:26:35;96489.56;;;20.48;100.00
11198;BME280;5655;48.744;9.162;2022-07-01T13:29:03;96494.31;;;20.60;100.00
11198;BME280;5655;48.744;9.162;2022-07-01T13:31:28;96484.44;;;20.33;100.00